Time;durP1;ratioP1;P1;durP2;ratioP2;P2;SDS_P1;SDS_P2;PMS_P1;PMS_P2;Temp;Humidity;BMP_temperature;BMP_pressure;BME280_temperature;BME280_humidity;BME280_pressure;Samples;Min_cycle;Max_cycle;Signal;HPM_P1;HPM_P2
2021/10/11 00:01:05;;;;;;;11.27;2.35;;;13.10;99.90;;;;;;5055139;28;40238;-78
2021/10/11 00:03:31;;;;;;;20.85;2.58;;;13.20;99.90;;;;;;5057617;28;39049;-79
2021/10/11 00:05:57;;;;;;;10.77;2.22;;;13.20;99.90;;;;;;5075742;28;37248;-78
2021/10/11 00:08:23;;;;;;;11.30;2.10;;;13.20;99.90;;;;;;5079992;28;38911;-78
2021/10/11 00:10:51;;;;;;;7.72;2.08;;;13.10;99.90;;;;;;5076624;28;38554;-79
2021/10/11 00:13:21;;;;;;;6.75;1.90;;;13.10;99.90;;;;;;5058763;28;39166;-79
2021/10/11 00:15:48;;;;;;;17.00;2.33;;;13.10;99.90;;;;;;5056354;28;38046;-79
2021/10/11 00:18:15;;;;;;;10.40;1.85;;;13.00;99.90;;;;;;5076396;28;38548;-78
2021/10/11 00:20:41;;;;;;;12.05;2.15;;;13.00;99.90;;;;;;5060222;28;36313;-78
2021/10/11 00:23:10;;;;;;;15.07;2.63;;;12.90;99.90;;;;;;5059353;28;38437;-78
2021/10/11 00:25:36;;;;;;;11.23;2.13;;;12.90;99.90;;;;;;5075082;28;37155;-79
2021/10/11 00:28:03;;;;;;;7.57;1.63;;;12.80;99.90;;;;;;5077115;28;39012;-78
2021/10/11 00:30:29;;;;;;;8.60;2.30;;;12.80;99.90;;;;;;5057866;28;38528;-78
2021/10/11 00:32:55;;;;;;;6.38;1.92;;;12.70;99.90;;;;;;5058587;28;39195;-79
2021/10/11 00:35:21;;;;;;;10.25;1.90;;;12.70;99.90;;;;;;5076149;28;36693;-78
2021/10/11 00:37:47;;;;;;;13.40;2.15;;;12.70;99.90;;;;;;5077424;28;38935;-79
2021/10/11 00:40:13;;;;;;;10.38;2.03;;;12.70;99.90;;;;;;5057822;28;39991;-78
2021/10/11 00:42:40;;;;;;;12.73;2.13;;;12.60;99.90;;;;;;5056854;28;39011;-79
2021/10/11 00:45:06;;;;;;;14.40;2.38;;;12.60;99.90;;;;;;5076435;28;37541;-78
2021/10/11 00:47:33;;;;;;;9.98;2.15;;;12.60;99.90;;;;;;5075878;28;39481;-79
2021/10/11 00:49:59;;;;;;;8.00;1.92;;;12.60;99.90;;;;;;5053339;28;40066;-78
2021/10/11 00:52:25;;;;;;;12.25;2.00;;;12.50;99.90;;;;;;5076086;28;38609;-78
2021/10/11 00:54:51;;;;;;;13.38;2.08;;;12.50;99.90;;;;;;5070563;28;37627;-78
2021/10/11 00:57:17;;;;;;;11.48;2.13;;;12.40;99.90;;;;;;5058000;28;39223;-79
2021/10/11 00:59:44;;;;;;;10.40;2.00;;;12.40;99.90;;;;;;5075154;28;38275;-79
2021/10/11 01:02:10;;;;;;;9.80;2.00;;;12.30;99.90;;;;;;5071992;28;37912;-79
2021/10/11 01:04:36;;;;;;;9.57;2.05;;;12.30;99.90;;;;;;5074570;28;36834;-79
2021/10/11 01:07:02;;;;;;;9.13;2.30;;;12.20;99.90;;;;;;5074025;28;38614;-78
2021/10/11 01:09:29;;;;;;;13.70;2.35;;;12.20;99.90;;;;;;5061255;28;40154;-79
2021/10/11 01:11:55;;;;;;;13.35;2.88;;;12.20;99.90;;;;;;5081439;28;37651;-78
2021/10/11 01:14:22;;;;;;;11.23;1.90;;;12.30;99.90;;;;;;5082987;28;36905;-78
2021/10/11 01:16:48;;;;;;;12.15;1.98;;;12.20;99.90;;;;;;5075039;28;40176;-78
2021/10/11 01:19:14;;;;;;;13.23;2.50;;;12.20;99.90;;;;;;5055637;28;38922;-78
2021/10/11 01:21:40;;;;;;;10.45;1.92;;;12.30;99.90;;;;;;5073787;28;38424;-78
2021/10/11 01:24:07;;;;;;;8.65;2.00;;;12.20;99.90;;;;;;5072982;28;37466;-78
2021/10/11 01:26:38;;;;;;;11.18;1.85;;;12.20;99.90;;;;;;5057982;28;38510;-78
2021/10/11 01:29:06;;;;;;;12.90;2.15;;;12.20;99.90;;;;;;5058150;28;39821;-77
2021/10/11 01:31:33;;;;;;;9.25;1.98;;;12.20;99.90;;;;;;5073652;28;37999;-78
2021/10/11 01:34:00;;;;;;;11.80;1.90;;;12.20;99.90;;;;;;5072622;28;37085;-78
2021/10/11 01:36:27;;;;;;;16.13;2.28;;;12.30;99.90;;;;;;5068653;28;40811;-78
2021/10/11 01:38:55;;;;;;;8.35;1.58;;;12.20;99.90;;;;;;5056951;28;38840;-78
2021/10/11 01:41:22;;;;;;;14.65;2.15;;;12.20;99.90;;;;;;5053406;28;37913;-79
2021/10/11 01:43:48;;;;;;;11.73;2.13;;;12.10;99.90;;;;;;5074739;28;37026;-79
2021/10/11 01:46:14;;;;;;;12.45;2.10;;;12.10;99.90;;;;;;5075152;28;37336;-78
2021/10/11 01:48:41;;;;;;;9.60;2.05;;;12.00;99.90;;;;;;5054453;28;39581;-78
2021/10/11 01:51:07;;;;;;;9.90;2.47;;;12.00;99.90;;;;;;5074612;28;38152;-78
2021/10/11 01:53:34;;;;;;;11.93;2.08;;;11.90;99.90;;;;;;5075570;28;37711;-79
2021/10/11 01:56:00;;;;;;;14.95;2.60;;;11.80;99.90;;;;;;5071224;28;38986;-79
2021/10/11 01:58:26;;;;;;;14.93;2.53;;;11.80;99.90;;;;;;5074504;28;38455;-78
2021/10/11 02:00:52;;;;;;;6.03;1.90;;;11.80;99.90;;;;;;5075625;28;38169;-79
2021/10/11 02:03:18;;;;;;;12.90;2.35;;;11.80;99.90;;;;;;5057448;28;37237;-79
2021/10/11 02:05:44;;;;;;;10.27;2.28;;;11.80;99.90;;;;;;5059402;28;40615;-79
2021/10/11 02:08:10;;;;;;;10.05;2.47;;;11.80;99.90;;;;;;5054236;28;38509;-79
2021/10/11 02:10:36;;;;;;;9.88;2.17;;;11.70;99.90;;;;;;5054769;28;40111;-79
2021/10/11 02:13:03;;;;;;;12.02;2.28;;;11.70;99.90;;;;;;5073710;28;36916;-79
2021/10/11 02:15:29;;;;;;;7.72;1.83;;;11.60;99.90;;;;;;5075515;28;38769;-79
2021/10/11 02:17:58;;;;;;;11.35;3.20;;;11.60;99.90;;;;;;5072608;28;38318;-79
2021/10/11 02:20:25;;;;;;;13.43;2.33;;;11.70;99.90;;;;;;5054224;28;39418;-78
2021/10/11 02:22:52;;;;;;;13.32;2.10;;;11.70;99.90;;;;;;5071419;28;37027;-79
2021/10/11 02:25:19;;;;;;;16.52;2.70;;;11.70;99.90;;;;;;5074895;28;37652;-79
2021/10/11 02:27:45;;;;;;;8.80;2.15;;;11.60;99.90;;;;;;5059561;28;38730;-79
2021/10/11 02:30:11;;;;;;;13.85;2.63;;;11.60;99.90;;;;;;5068488;28;37165;-78
2021/10/11 02:32:38;;;;;;;8.85;2.03;;;11.60;99.90;;;;;;5054917;28;37756;-78
2021/10/11 02:35:05;;;;;;;11.38;2.15;;;11.50;99.90;;;;;;5071738;28;39672;-78
2021/10/11 02:37:32;;;;;;;10.32;2.05;;;11.50;99.90;;;;;;5077326;28;37763;-79
2021/10/11 02:39:58;;;;;;;10.73;1.83;;;11.50;99.90;;;;;;5072688;28;37870;-79
2021/10/11 02:42:24;;;;;;;10.57;2.15;;;11.50;99.90;;;;;;5053912;28;37686;-79
2021/10/11 02:44:51;;;;;;;13.25;2.00;;;11.50;99.90;;;;;;5073772;28;38763;-78
2021/10/11 02:47:17;;;;;;;9.75;2.03;;;11.50;99.90;;;;;;5067542;28;38865;-78
2021/10/11 02:49:43;;;;;;;14.90;2.58;;;11.40;99.90;;;;;;5058312;28;37915;-79
2021/10/11 02:52:09;;;;;;;10.20;2.00;;;11.30;99.90;;;;;;5074444;28;37822;-78
2021/10/11 02:54:35;;;;;;;6.88;1.42;;;11.30;99.90;;;;;;5076748;28;39303;-79
2021/10/11 02:57:01;;;;;;;9.13;1.60;;;11.20;99.90;;;;;;5057758;28;40004;-79
2021/10/11 02:59:27;;;;;;;7.18;1.25;;;11.10;99.90;;;;;;5059186;28;46372;-78
2021/10/11 03:01:53;;;;;;;7.70;1.27;;;11.00;99.90;;;;;;5058958;28;37321;-78
2021/10/11 03:04:20;;;;;;;4.63;1.35;;;10.90;99.90;;;;;;5058612;28;38085;-78
2021/10/11 03:06:46;;;;;;;8.45;2.35;;;10.80;99.90;;;;;;5073762;28;39155;-78
2021/10/11 03:09:12;;;;;;;17.63;2.58;;;10.60;99.90;;;;;;5076725;28;37738;-78
2021/10/11 03:11:38;;;;;;;9.43;2.05;;;10.60;99.90;;;;;;5073957;28;37281;-78
2021/10/11 03:14:04;;;;;;;9.05;1.80;;;10.50;99.90;;;;;;5057747;28;39803;-77
2021/10/11 03:16:32;;;;;;;9.60;1.80;;;10.50;99.90;;;;;;5063574;28;39210;-78
2021/10/11 03:18:58;;;;;;;11.23;2.00;;;10.40;99.90;;;;;;5059742;28;39925;-78
2021/10/11 03:21:24;;;;;;;4.15;1.33;;;10.30;99.90;;;;;;5076929;28;37348;-78
2021/10/11 03:23:51;;;;;;;4.30;1.33;;;10.30;99.90;;;;;;5074206;28;38628;-78
2021/10/11 03:26:18;;;;;;;7.93;1.87;;;10.20;99.90;;;;;;5077446;28;38532;-79
2021/10/11 03:28:45;;;;;;;12.97;2.33;;;10.20;99.90;;;;;;5060485;28;38318;-78
2021/10/11 03:31:11;;;;;;;5.77;1.80;;;10.10;99.90;;;;;;5077490;28;37207;-78
2021/10/11 03:33:37;;;;;;;6.57;1.60;;;10.00;99.90;;;;;;5055301;28;39922;-78
2021/10/11 03:36:04;;;;;;;8.90;1.43;;;10.00;99.90;;;;;;5075461;28;38143;-78
2021/10/11 03:38:30;;;;;;;10.07;1.90;;;9.90;99.90;;;;;;5062273;28;39504;-78
2021/10/11 03:40:57;;;;;;;6.77;1.70;;;9.90;99.90;;;;;;5074711;28;37282;-78
2021/10/11 03:43:23;;;;;;;8.53;1.90;;;9.80;99.90;;;;;;5074783;28;39280;-79
2021/10/11 03:45:49;;;;;;;7.93;1.83;;;9.80;99.90;;;;;;5074386;28;38251;-78
2021/10/11 03:48:15;;;;;;;9.80;1.87;;;9.80;99.90;;;;;;5075727;28;39109;-78
2021/10/11 03:50:45;;;;;;;5.60;1.90;;;9.80;99.90;;;;;;5057608;28;38008;-78
2021/10/11 03:53:16;;;;;;;7.03;2.10;;;9.80;99.90;;;;;;5056232;28;39583;-79
2021/10/11 03:55:42;;;;;;;11.07;2.27;;;9.80;99.90;;;;;;5060255;28;38962;-78
2021/10/11 03:58:09;;;;;;;8.60;1.60;;;9.80;99.90;;;;;;5058666;28;38806;-78
2021/10/11 04:00:36;;;;;;;5.50;1.60;;;9.90;99.90;;;;;;5058742;28;37952;-78
2021/10/11 04:03:04;;;;;;;11.13;2.10;;;9.90;99.90;;;;;;5079145;28;38981;-78
2021/10/11 04:05:31;;;;;;;13.73;2.27;;;9.90;99.90;;;;;;5059820;28;38249;-78
2021/10/11 04:08:02;;;;;;;7.57;2.13;;;9.90;99.90;;;;;;5078789;28;38303;-78
2021/10/11 04:10:32;;;;;;;5.90;2.03;;;10.00;99.90;;;;;;5075063;28;48814;-78
2021/10/11 04:13:03;;;;;;;7.75;1.80;;;10.10;99.90;;;;;;5060105;28;39978;-78
2021/10/11 04:15:29;;;;;;;8.83;1.90;;;10.20;99.90;;;;;;5058750;28;47324;-79
2021/10/11 04:17:55;;;;;;;8.95;1.60;;;10.30;99.90;;;;;;5054195;28;37189;-79
2021/10/11 04:20:22;;;;;;;5.63;2.03;;;10.30;99.90;;;;;;5051416;28;36352;-78
2021/10/11 04:22:48;;;;;;;7.43;1.67;;;10.40;99.90;;;;;;5073253;28;39552;-79
2021/10/11 04:25:14;;;;;;;5.63;1.50;;;10.40;99.90;;;;;;5072909;28;39258;-79
2021/10/11 04:27:41;;;;;;;4.57;1.57;;;10.50;99.90;;;;;;5076434;28;37819;-79
2021/10/11 04:30:08;;;;;;;14.80;1.97;;;10.50;99.90;;;;;;5071898;27;37085;-78
2021/10/11 04:32:35;;;;;;;12.45;2.30;;;10.50;99.90;;;;;;5056567;28;40275;-79
2021/10/11 04:35:01;;;;;;;9.83;2.13;;;10.60;99.90;;;;;;5074530;28;39141;-79
2021/10/11 04:37:27;;;;;;;4.40;1.77;;;10.70;99.90;;;;;;5057323;28;37910;-80
2021/10/11 04:39:53;;;;;;;11.32;2.28;;;10.80;99.90;;;;;;5072032;28;37137;-79
2021/10/11 04:42:19;;;;;;;10.57;2.33;;;10.80;99.90;;;;;;5077166;27;38427;-79
2021/10/11 04:44:46;;;;;;;7.15;1.95;;;10.90;99.90;;;;;;5075021;28;38721;-79
2021/10/11 04:47:12;;;;;;;11.18;2.75;;;10.90;99.90;;;;;;5073808;28;37643;-80
2021/10/11 04:49:38;;;;;;;7.85;2.20;;;10.90;99.90;;;;;;5072190;28;37107;-79
2021/10/11 04:52:04;;;;;;;10.83;1.73;;;11.10;99.90;;;;;;5055923;28;39487;-79
2021/10/11 04:54:30;;;;;;;13.52;2.95;;;11.30;99.90;;;;;;5057921;28;38541;-81
2021/10/11 04:56:56;;;;;;;12.10;2.22;;;11.50;99.90;;;;;;5072058;28;39128;-79
2021/10/11 04:59:22;;;;;;;10.73;2.28;;;11.60;99.90;;;;;;5058856;28;37962;-79
2021/10/11 05:01:48;;;;;;;10.45;2.65;;;11.70;99.90;;;;;;5074336;28;38950;-79
2021/10/11 05:04:14;;;;;;;8.55;2.47;;;11.80;99.90;;;;;;5058205;28;40040;-78
2021/10/11 05:06:40;;;;;;;7.85;2.05;;;11.80;99.90;;;;;;5056727;28;38282;-79
2021/10/11 05:09:06;;;;;;;11.77;2.20;;;11.80;99.90;;;;;;5067044;28;38081;-78
2021/10/11 05:11:32;;;;;;;12.43;1.98;;;11.90;99.90;;;;;;5060484;28;39275;-78
2021/10/11 05:13:58;;;;;;;10.75;2.08;;;11.90;99.90;;;;;;5077525;28;38857;-78
2021/10/11 05:16:26;;;;;;;11.85;2.50;;;11.80;99.90;;;;;;5072004;28;38316;-78
2021/10/11 05:18:53;;;;;;;11.40;2.38;;;11.90;99.90;;;;;;5081499;28;38200;-77
2021/10/11 05:21:20;;;;;;;10.30;2.50;;;11.90;99.90;;;;;;5061591;28;37490;-78
2021/10/11 05:23:46;;;;;;;9.80;2.45;;;11.90;99.90;;;;;;5079350;28;39455;-77
2021/10/11 05:26:12;;;;;;;14.00;2.72;;;12.00;99.90;;;;;;5061875;28;38433;-77
2021/10/11 05:28:39;;;;;;;14.88;2.95;;;12.10;99.90;;;;;;5079078;28;37796;-77
2021/10/11 05:31:06;;;;;;;12.40;3.22;;;12.10;99.90;;;;;;5078753;28;39531;-77
2021/10/11 05:33:34;;;;;;;12.93;2.95;;;12.20;99.90;;;;;;5062529;28;37311;-78
2021/10/11 05:36:01;;;;;;;15.07;3.03;;;12.30;99.90;;;;;;5076636;28;39315;-78
2021/10/11 05:38:27;;;;;;;10.63;2.88;;;12.30;99.90;;;;;;5073121;28;48517;-79
2021/10/11 05:40:55;;;;;;;12.80;3.30;;;12.30;99.90;;;;;;5078547;28;39986;-78
2021/10/11 05:43:21;;;;;;;9.73;3.03;;;12.40;99.90;;;;;;5061870;28;38199;-78
2021/10/11 05:45:48;;;;;;;14.57;3.60;;;12.40;99.90;;;;;;5084749;28;38905;-78
2021/10/11 05:48:14;;;;;;;14.25;2.90;;;12.40;99.90;;;;;;5074733;28;37268;-78
2021/10/11 05:50:40;;;;;;;12.55;2.72;;;12.50;99.90;;;;;;5064776;28;37490;-78
2021/10/11 05:53:06;;;;;;;15.95;2.60;;;12.50;99.90;;;;;;5060166;28;37190;-78
2021/10/11 05:55:32;;;;;;;14.48;3.05;;;12.50;99.90;;;;;;5067966;28;36978;-79
2021/10/11 05:57:58;;;;;;;13.50;2.35;;;12.50;99.90;;;;;;5062160;28;35894;-78
2021/10/11 06:00:25;;;;;;;12.32;3.08;;;12.60;99.90;;;;;;5063264;28;39273;-78
2021/10/11 06:02:51;;;;;;;13.10;2.22;;;12.70;99.90;;;;;;5060507;28;38175;-79
2021/10/11 06:05:17;;;;;;;15.10;2.33;;;12.70;99.90;;;;;;5073138;28;38022;-79
2021/10/11 06:07:43;;;;;;;15.45;2.20;;;12.70;99.90;;;;;;5072457;27;36707;-79
2021/10/11 06:10:10;;;;;;;15.63;2.25;;;12.70;99.90;;;;;;5079714;28;37981;-79
2021/10/11 06:12:36;;;;;;;13.68;2.45;;;12.70;99.90;;;;;;5062170;28;39164;-79
2021/10/11 06:15:03;;;;;;;9.82;1.65;;;12.70;99.90;;;;;;5082317;28;36638;-80
2021/10/11 06:17:29;;;;;;;8.30;1.77;;;12.70;99.90;;;;;;5061168;28;36223;-79
2021/10/11 06:19:56;;;;;;;13.48;2.40;;;12.70;99.90;;;;;;5063882;28;37808;-79
2021/10/11 06:22:22;;;;;;;12.65;2.15;;;12.70;99.90;;;;;;5082400;28;39580;-79
2021/10/11 06:24:48;;;;;;;9.02;2.15;;;12.70;99.90;;;;;;5063634;28;39023;-80
2021/10/11 06:27:14;;;;;;;6.70;1.90;;;12.70;99.90;;;;;;5062578;28;36727;-79
2021/10/11 06:29:40;;;;;;;9.32;1.90;;;12.70;99.90;;;;;;5081520;28;38725;-79
2021/10/11 06:32:06;;;;;;;9.77;2.13;;;12.70;99.90;;;;;;5060620;28;38869;-79
2021/10/11 06:34:32;;;;;;;6.80;2.30;;;12.70;99.90;;;;;;5081575;28;38279;-79
2021/10/11 06:36:58;;;;;;;11.40;2.10;;;12.70;99.90;;;;;;5062142;28;37489;-80
2021/10/11 06:39:25;;;;;;;14.23;2.00;;;12.60;99.90;;;;;;5064478;28;38970;-80
2021/10/11 06:41:51;;;;;;;13.10;2.47;;;12.50;99.90;;;;;;5063457;28;39550;-79
2021/10/11 06:44:17;;;;;;;13.38;3.13;;;12.50;99.90;;;;;;5062273;28;37147;-79
2021/10/11 06:46:43;;;;;;;14.50;2.25;;;12.50;99.90;;;;;;5078938;28;38236;-78
2021/10/11 06:49:09;;;;;;;12.07;1.80;;;12.50;99.90;;;;;;5078459;28;38958;-78
2021/10/11 06:51:35;;;;;;;13.77;2.10;;;12.60;99.90;;;;;;5075135;28;36818;-79
2021/10/11 06:54:01;;;;;;;11.75;2.67;;;12.60;99.90;;;;;;5064281;28;39510;-77
2021/10/11 06:56:27;;;;;;;10.77;2.40;;;12.60;99.90;;;;;;5060846;28;38120;-79
2021/10/11 06:58:53;;;;;;;9.00;1.90;;;12.50;99.90;;;;;;5078775;28;39298;-79
2021/10/11 07:01:20;;;;;;;12.60;2.53;;;12.50;99.90;;;;;;5074800;28;39471;-79
2021/10/11 07:03:46;;;;;;;7.43;1.92;;;12.50;99.90;;;;;;5076320;28;37955;-79
2021/10/11 07:06:17;;;;;;;6.95;1.20;;;12.60;99.90;;;;;;5078404;28;38479;-79
2021/10/11 07:08:43;;;;;;;7.43;1.67;;;12.60;99.90;;;;;;5065718;28;40862;-79
2021/10/11 07:11:09;;;;;;;12.70;1.98;;;12.70;99.90;;;;;;5065997;28;38195;-78
2021/10/11 07:13:36;;;;;;;4.88;1.45;;;12.70;99.90;;;;;;5076880;28;38215;-78
2021/10/11 07:16:05;;;;;;;9.07;2.13;;;12.70;99.90;;;;;;5057500;28;38833;-79
2021/10/11 07:18:33;;;;;;;10.25;1.90;;;12.70;99.90;;;;;;5075627;28;39820;-79
2021/10/11 07:21:00;;;;;;;4.40;1.23;;;12.80;99.90;;;;;;5078502;28;39270;-79
2021/10/11 07:23:29;;;;;;;14.45;2.42;;;12.80;99.90;;;;;;5060113;28;39649;-79
2021/10/11 07:26:00;;;;;;;11.45;1.80;;;12.80;99.90;;;;;;5076818;28;38079;-79
2021/10/11 07:28:26;;;;;;;12.15;2.70;;;12.90;99.90;;;;;;5081207;28;41539;-79
2021/10/11 07:30:53;;;;;;;10.27;2.25;;;12.90;99.90;;;;;;5069944;28;39910;-80
2021/10/11 07:33:21;;;;;;;10.95;2.63;;;13.00;99.90;;;;;;5077766;28;38005;-79
2021/10/11 07:35:48;;;;;;;12.88;2.47;;;13.10;99.90;;;;;;5063253;28;37682;-79
2021/10/11 07:38:14;;;;;;;12.73;2.20;;;13.30;99.90;;;;;;5085740;28;39539;-79
2021/10/11 07:40:40;;;;;;;8.85;1.77;;;13.40;99.90;;;;;;5081377;28;39196;-79
2021/10/11 07:43:06;;;;;;;10.75;1.60;;;13.50;99.90;;;;;;5079570;28;37722;-79
2021/10/11 07:45:32;;;;;;;8.30;1.95;;;13.50;99.90;;;;;;5080330;28;37010;-79
2021/10/11 07:47:59;;;;;;;7.10;2.05;;;13.60;99.90;;;;;;5066333;28;39622;-80
2021/10/11 07:50:25;;;;;;;13.20;3.28;;;13.70;99.90;;;;;;5082866;28;38271;-79
2021/10/11 07:52:51;;;;;;;17.95;1.90;;;13.70;99.90;;;;;;5084241;28;37158;-80
2021/10/11 07:55:17;;;;;;;15.93;1.90;;;13.70;99.90;;;;;;5063953;28;37262;-78
2021/10/11 07:57:43;;;;;;;7.28;1.45;;;13.80;99.90;;;;;;5077990;28;38840;-79
2021/10/11 08:00:14;;;;;;;10.45;2.90;;;13.80;99.90;;;;;;5081564;28;39486;-79
2021/10/11 08:02:41;;;;;;;7.57;1.98;;;13.80;99.90;;;;;;5081547;27;37061;-79
2021/10/11 08:05:08;;;;;;;11.10;1.85;;;13.90;99.90;;;;;;5085069;28;37418;-79
2021/10/11 08:07:34;;;;;;;10.80;1.40;;;13.90;99.90;;;;;;5065384;28;40782;-79
2021/10/11 08:10:00;;;;;;;9.75;1.80;;;13.90;99.90;;;;;;5080627;28;39058;-79
2021/10/11 08:12:26;;;;;;;6.10;1.38;;;14.00;99.90;;;;;;5088957;28;48917;-80
2021/10/11 08:14:52;;;;;;;8.30;1.92;;;14.10;99.90;;;;;;5071135;28;38704;-79
2021/10/11 08:17:18;;;;;;;8.43;2.33;;;14.20;99.90;;;;;;5083113;28;38674;-80
2021/10/11 08:19:44;;;;;;;7.60;1.52;;;14.20;99.90;;;;;;5082041;28;39039;-79
2021/10/11 08:22:11;;;;;;;8.63;1.77;;;14.30;99.90;;;;;;5054948;27;36853;-79
2021/10/11 08:24:38;;;;;;;9.38;1.77;;;14.50;99.90;;;;;;5081404;28;37066;-79
2021/10/11 08:27:05;;;;;;;7.70;1.77;;;14.60;99.90;;;;;;5064281;28;39817;-80
2021/10/11 08:29:32;;;;;;;9.00;1.63;;;14.60;99.90;;;;;;5082384;28;39449;-80
2021/10/11 08:31:58;;;;;;;6.82;1.33;;;14.60;99.90;;;;;;5060307;28;39820;-79
2021/10/11 08:34:24;;;;;;;8.43;1.83;;;14.50;99.90;;;;;;5063793;28;37678;-79
2021/10/11 08:36:50;;;;;;;11.02;1.50;;;14.40;99.90;;;;;;5066261;28;39540;-79
2021/10/11 08:39:17;;;;;;;7.32;1.33;;;14.40;99.90;;;;;;5070269;28;37697;-79
2021/10/11 08:41:44;;;;;;;8.05;1.27;;;14.40;99.90;;;;;;5077816;28;38593;-80
2021/10/11 08:44:11;;;;;;;10.82;1.35;;;14.40;99.90;;;;;;5086551;28;38234;-80
2021/10/11 08:46:37;;;;;;;9.85;1.40;;;14.60;99.90;;;;;;5072809;28;39602;-80
2021/10/11 08:49:03;;;;;;;10.05;1.40;;;14.60;99.90;;;;;;5082953;28;39529;-80
2021/10/11 08:51:29;;;;;;;9.40;1.40;;;14.70;99.90;;;;;;5087409;28;38087;-80
2021/10/11 08:53:55;;;;;;;6.25;1.40;;;14.70;99.90;;;;;;5072529;28;35811;-79
2021/10/11 08:56:21;;;;;;;8.18;1.63;;;14.80;99.90;;;;;;5083915;28;38867;-80
2021/10/11 08:58:49;;;;;;;7.75;1.25;;;15.00;99.90;;;;;;5085213;28;39695;-80
2021/10/11 09:01:22;;;;;;;10.80;1.80;;;15.20;99.90;;;;;;5064005;28;38804;-78
2021/10/11 09:03:48;;;;;;;5.22;1.40;;;15.50;99.90;;;;;;5064875;28;36048;-80
2021/10/11 09:06:16;;;;;;;8.68;1.52;;;15.70;99.90;;;;;;5084911;28;20049;-80
2021/10/11 09:08:42;;;;;;;9.45;1.95;;;15.70;99.90;;;;;;5081881;28;38316;-80
2021/10/11 09:11:11;;;;;;;9.32;1.55;;;15.80;99.90;;;;;;5080502;28;38627;-79
2021/10/11 09:13:51;;;;;;;8.75;1.50;;;15.80;99.90;;;;;;5082198;28;37300;-79
2021/10/11 09:16:29;;;;;;;12.65;1.92;;;15.70;99.90;;;;;;5064798;28;39206;-79
2021/10/11 09:19:06;;;;;;;8.05;1.70;;;15.80;99.90;;;;;;5073005;28;39484;-79
2021/10/11 09:21:34;;;;;;;8.48;1.58;;;15.70;99.90;;;;;;5068461;28;47024;-79
2021/10/11 09:24:15;;;;;;;9.43;1.58;;;15.60;99.90;;;;;;5073580;28;38581;-79
2021/10/11 09:26:44;;;;;;;10.20;2.00;;;15.60;99.90;;;;;;5063637;28;47939;-79
2021/10/11 09:29:10;;;;;;;10.55;1.73;;;15.60;99.90;;;;;;5060171;28;38689;-78
2021/10/11 09:31:42;;;;;;;6.22;1.60;;;15.50;99.90;;;;;;5068243;28;38505;-79
2021/10/11 09:34:09;;;;;;;7.63;1.60;;;15.40;99.90;;;;;;5061253;28;38301;-78
2021/10/11 09:36:38;;;;;;;7.50;1.40;;;15.50;99.90;;;;;;5065919;28;39191;-79
2021/10/11 09:39:04;;;;;;;5.00;1.75;;;15.60;99.90;;;;;;5065146;28;39001;-78
2021/10/11 09:41:30;;;;;;;7.20;1.30;;;15.70;99.90;;;;;;5085917;28;38767;-78
2021/10/11 09:43:56;;;;;;;9.02;1.23;;;15.90;99.90;;;;;;5063749;28;37912;-78
2021/10/11 09:46:24;;;;;;;6.55;1.52;;;16.10;99.90;;;;;;5070003;28;39821;-79
2021/10/11 09:48:56;;;;;;;10.45;1.73;;;16.50;99.90;;;;;;5068621;28;39762;-80
2021/10/11 09:51:24;;;;;;;4.55;1.45;;;16.70;99.90;;;;;;5057198;28;37607;-80
2021/10/11 09:53:52;;;;;;;16.23;1.95;;;16.80;99.90;;;;;;5066647;28;37303;-80
2021/10/11 09:56:19;;;;;;;8.93;1.48;;;16.60;99.90;;;;;;5082244;28;39728;-80
2021/10/11 09:58:45;;;;;;;7.38;1.25;;;16.40;99.90;;;;;;5059111;28;40065;-80
2021/10/11 10:01:12;;;;;;;8.50;1.60;;;16.30;99.90;;;;;;5057051;28;39672;-80
2021/10/11 10:03:38;;;;;;;7.57;1.33;;;16.30;99.90;;;;;;5066211;28;38445;-80
2021/10/11 10:06:07;;;;;;;7.47;2.03;;;16.00;99.90;;;;;;5081319;28;38671;-80
2021/10/11 10:08:35;;;;;;;7.50;1.23;;;15.90;99.90;;;;;;5067517;28;39731;-80
2021/10/11 10:11:02;;;;;;;7.80;1.65;;;15.30;99.90;;;;;;5085291;28;38184;-80
2021/10/11 10:13:30;;;;;;;9.02;1.63;;;14.90;99.90;;;;;;5064281;28;37498;-81
2021/10/11 10:16:08;;;;;;;8.38;1.38;;;14.60;99.90;;;;;;5063256;28;39915;-80
2021/10/11 10:18:52;;;;;;;5.82;1.52;;;14.50;99.90;;;;;;5076444;28;48293;-79
2021/10/11 10:21:31;;;;;;;8.15;1.77;;;14.40;99.90;;;;;;5076396;28;38772;-82
2021/10/11 10:23:57;;;;;;;9.27;1.58;;;14.60;99.90;;;;;;5083782;28;37371;-81
2021/10/11 10:26:35;;;;;;;7.32;1.77;;;14.70;99.90;;;;;;5064762;28;40438;-80
2021/10/11 10:29:20;;;;;;;10.18;1.48;;;14.80;99.90;;;;;;5060071;28;38299;-77
2021/10/11 10:31:46;;;;;;;10.15;1.15;;;14.90;99.90;;;;;;5065150;28;47373;-80
2021/10/11 10:34:20;;;;;;;6.93;1.52;;;15.00;99.90;;;;;;5066550;28;37574;-80
2021/10/11 10:36:59;;;;;;;4.80;1.55;;;15.10;99.90;;;;;;5080822;28;39104;-79
2021/10/11 10:39:36;;;;;;;7.82;1.23;;;15.20;99.90;;;;;;5078430;28;40074;-79
2021/10/11 10:42:02;;;;;;;9.18;1.63;;;15.20;99.90;;;;;;5075025;28;39398;-79
2021/10/11 10:44:28;;;;;;;9.80;1.35;;;15.30;99.90;;;;;;5060047;28;38252;-80
2021/10/11 10:46:59;;;;;;;7.93;1.52;;;15.40;99.90;;;;;;5080808;28;38952;-80
2021/10/11 10:49:34;;;;;;;5.22;1.17;;;15.50;99.90;;;;;;5080133;28;37898;-80
2021/10/11 10:52:02;;;;;;;6.18;1.23;;;15.70;99.90;;;;;;5078184;28;37713;-80
2021/10/11 10:54:34;;;;;;;8.93;1.80;;;15.80;99.90;;;;;;5066007;28;47020;-80
2021/10/11 10:57:00;;;;;;;8.35;1.60;;;15.90;99.90;;;;;;5065377;28;38990;-80
2021/10/11 10:59:26;;;;;;;6.40;1.27;;;16.00;99.90;;;;;;5063160;28;37302;-79
2021/10/11 11:02:06;;;;;;;3.38;0.95;;;16.20;99.90;;;;;;5079457;28;39014;-80
2021/10/11 11:04:33;;;;;;;7.72;1.58;;;16.20;99.90;;;;;;5064470;28;48520;-80
2021/10/11 11:07:03;;;;;;;6.47;1.10;;;16.20;99.90;;;;;;5060983;28;39490;-79
2021/10/11 11:09:46;;;;;;;6.38;1.42;;;16.30;99.90;;;;;;5080590;28;48519;-81
2021/10/11 11:12:14;;;;;;;5.13;1.45;;;16.30;99.90;;;;;;5081358;28;39031;-80
2021/10/11 11:14:44;;;;;;;7.95;1.20;;;16.20;99.90;;;;;;5083356;28;37985;-79
2021/10/11 11:17:14;;;;;;;7.22;1.40;;;16.20;99.90;;;;;;5083576;28;38859;-80
2021/10/11 11:19:42;;;;;;;8.05;1.27;;;16.20;99.90;;;;;;5084386;28;37630;-80
2021/10/11 11:22:13;;;;;;;9.70;1.17;;;16.30;99.90;;;;;;5064611;28;38474;-80
2021/10/11 11:24:50;;;;;;;4.35;1.08;;;16.30;99.90;;;;;;5065982;28;36052;-80
2021/10/11 11:27:33;;;;;;;5.32;1.17;;;16.50;99.90;;;;;;5080169;28;39344;-79
2021/10/11 11:30:12;;;;;;;6.72;1.35;;;16.60;99.90;;;;;;5070602;28;39130;-79
2021/10/11 11:32:50;;;;;;;5.75;1.20;;;16.40;99.90;;;;;;5085732;28;48767;-80
2021/10/11 11:35:17;;;;;;;4.70;0.70;;;16.20;99.90;;;;;;5085360;28;37568;-80
2021/10/11 11:37:54;;;;;;;7.28;1.33;;;16.20;99.90;;;;;;5086707;28;38559;-80
2021/10/11 11:40:23;;;;;;;9.88;1.30;;;16.10;99.90;;;;;;5084058;28;39430;-80
2021/10/11 11:42:50;;;;;;;8.23;1.17;;;16.20;99.90;;;;;;5063008;28;37008;-80
2021/10/11 11:45:19;;;;;;;9.95;1.20;;;16.30;99.90;;;;;;5066223;28;37122;-81
2021/10/11 11:47:46;;;;;;;7.85;1.27;;;16.20;99.90;;;;;;5067756;28;39201;-79
2021/10/11 11:50:21;;;;;;;7.57;1.30;;;16.20;99.90;;;;;;5063694;28;37572;-80
2021/10/11 11:52:57;;;;;;;11.95;1.42;;;16.20;99.90;;;;;;5066802;28;38501;-81
2021/10/11 11:55:23;;;;;;;5.72;1.50;;;16.30;99.90;;;;;;5064999;28;36691;-80
2021/10/11 11:57:49;;;;;;;9.65;1.15;;;16.40;99.90;;;;;;5084368;28;39612;-81
2021/10/11 12:00:17;;;;;;;9.25;1.20;;;16.70;99.90;;;;;;5068889;28;38375;-81
2021/10/11 12:02:45;;;;;;;7.53;1.30;;;17.10;99.90;;;;;;5083508;28;38060;-80
2021/10/11 12:05:11;;;;;;;9.35;1.20;;;17.40;99.90;;;;;;5085565;28;38154;-80
2021/10/11 12:07:41;;;;;;;9.77;1.80;;;17.90;99.90;;;;;;5084592;28;39868;-80
2021/10/11 12:10:08;;;;;;;10.10;1.80;;;17.60;99.90;;;;;;5084667;27;39349;-80
2021/10/11 12:12:36;;;;;;;12.57;1.80;;;17.50;99.90;;;;;;5069875;28;37372;-81
2021/10/11 12:15:03;;;;;;;13.43;2.53;;;17.80;99.90;;;;;;5090137;28;37153;-78
2021/10/11 12:17:34;;;;;;;5.45;1.13;;;17.70;99.90;;;;;;5084332;28;47615;-80
2021/10/11 12:20:01;;;;;;;8.10;2.05;;;17.20;99.90;;;;;;5070387;28;37952;-81
2021/10/11 12:22:29;;;;;;;9.95;1.85;;;16.80;99.90;;;;;;5083915;28;40402;-81
2021/10/11 12:25:05;;;;;;;9.43;1.80;;;16.80;99.90;;;;;;5067732;28;34639;-80
2021/10/11 12:27:31;;;;;;;10.30;2.03;;;16.70;99.90;;;;;;5082663;28;48509;-80
2021/10/11 12:30:01;;;;;;;9.98;1.60;;;16.90;99.90;;;;;;5067749;28;37267;-79
2021/10/11 12:32:32;;;;;;;5.32;1.40;;;17.00;99.90;;;;;;5065399;28;47408;-80
2021/10/11 12:35:00;;;;;;;7.07;1.30;;;17.00;99.90;;;;;;5078637;28;37834;-79
2021/10/11 12:37:36;;;;;;;11.60;1.85;;;17.20;99.90;;;;;;5078306;28;38801;-80
2021/10/11 12:40:04;;;;;;;10.57;1.38;;;17.30;99.90;;;;;;5077698;28;38086;-80
2021/10/11 12:42:31;;;;;;;6.47;1.08;;;17.10;99.90;;;;;;5084139;28;37512;-82
2021/10/11 12:45:00;;;;;;;7.38;1.35;;;16.90;99.90;;;;;;5082770;28;37446;-80